sensor_id;sensor_type;location;lat;lon;timestamp;pressure;altitude;pressure_sealevel;temperature;humidity
32109;BME280;18624;50.042;8.436;2023-05-29T00:00:30;100613.16;;;18.35;47.54
32109;BME280;18624;50.042;8.436;2023-05-29T00:02:58;100525.00;;;17.61;47.89
32109;BME280;18624;50.042;8.436;2023-05-29T00:05:24;100340.97;;;16.42;47.48
32109;BME280;18624;50.042;8.436;2023-05-29T00:07:51;100640.31;;;18.45;47.54
32109;BME280;18624;50.042;8.436;2023-05-29T00:10:17;100583.66;;;18.08;47.40
32109;BME280;18624;50.042;8.436;2023-05-29T00:12:44;100631.31;;;18.36;47.29
32109;BME280;18624;50.042;8.436;2023-05-29T00:15:10;100549.06;;;17.79;47.42
32109;BME280;18624;50.042;8.436;2023-05-29T00:17:38;100359.25;;;16.49;47.41
32109;BME280;18624;50.042;8.436;2023-05-29T00:20:06;100362.34;;;16.42;47.42
32109;BME280;18624;50.042;8.436;2023-05-29T00:22:36;100456.78;;;17.25;47.41
32109;BME280;18624;50.042;8.436;2023-05-29T00:25:06;100378.31;;;16.80;47.51
32109;BME280;18624;50.042;8.436;2023-05-29T00:27:33;100622.63;;;18.43;47.36
32109;BME280;18624;50.042;8.436;2023-05-29T00:30:00;100614.22;;;18.37;47.58
32109;BME280;18624;50.042;8.436;2023-05-29T00:32:28;100587.09;;;18.03;48.06
32109;BME280;18624;50.042;8.436;2023-05-29T00:34:55;100581.59;;;17.93;48.52
32109;BME280;18624;50.042;8.436;2023-05-29T00:37:22;100608.53;;;18.17;48.69
32109;BME280;18624;50.042;8.436;2023-05-29T00:39:49;100612.75;;;18.27;48.50
32109;BME280;18624;50.042;8.436;2023-05-29T00:42:15;100531.41;;;17.67;48.58
32109;BME280;18624;50.042;8.436;2023-05-29T00:44:42;100381.63;;;16.60;48.77
32109;BME280;18624;50.042;8.436;2023-05-29T00:47:09;100559.41;;;17.79;49.33
32109;BME280;18624;50.042;8.436;2023-05-29T00:49:37;100585.44;;;17.96;49.32
32109;BME280;18624;50.042;8.436;2023-05-29T00:52:05;100598.84;;;17.98;49.24
32109;BME280;18624;50.042;8.436;2023-05-29T00:54:36;100609.97;;;18.12;49.54
32109;BME280;18624;50.042;8.436;2023-05-29T00:57:04;100519.81;;;17.54;49.54
32109;BME280;18624;50.042;8.436;2023-05-29T00:59:32;100622.75;;;18.10;49.31
32109;BME280;18624;50.042;8.436;2023-05-29T01:02:00;100533.72;;;17.45;49.06
32109;BME280;18624;50.042;8.436;2023-05-29T01:04:27;100553.38;;;17.56;49.08
32109;BME280;18624;50.042;8.436;2023-05-29T01:06:54;100411.47;;;16.56;49.02
32109;BME280;18624;50.042;8.436;2023-05-29T01:09:22;100527.38;;;17.30;49.02
32109;BME280;18624;50.042;8.436;2023-05-29T01:12:06;100522.66;;;17.21;49.33
32109;BME280;18624;50.042;8.436;2023-05-29T01:17:43;100593.53;;;17.61;49.72
32109;BME280;18624;50.042;8.436;2023-05-29T01:23:06;100546.72;;;17.39;50.01
32109;BME280;18624;50.042;8.436;2023-05-29T01:25:50;100551.81;;;17.31;49.74
32109;BME280;18624;50.042;8.436;2023-05-29T01:28:25;100551.22;;;17.27;50.17
32109;BME280;18624;50.042;8.436;2023-05-29T01:30:54;100554.13;;;17.33;49.99
32109;BME280;18624;50.042;8.436;2023-05-29T01:33:21;100562.63;;;17.29;49.83
32109;BME280;18624;50.042;8.436;2023-05-29T01:35:49;100558.94;;;17.23;50.30
32109;BME280;18624;50.042;8.436;2023-05-29T01:38:16;100363.31;;;15.97;50.32
32109;BME280;18624;50.042;8.436;2023-05-29T01:40:42;100586.84;;;17.43;50.33
32109;BME280;18624;50.042;8.436;2023-05-29T01:43:10;100501.97;;;16.74;50.54
32109;BME280;18624;50.042;8.436;2023-05-29T01:45:37;100615.31;;;17.44;51.07
32109;BME280;18624;50.042;8.436;2023-05-29T01:48:06;100616.97;;;17.51;51.38
32109;BME280;18624;50.042;8.436;2023-05-29T01:50:34;100328.53;;;15.53;51.72
32109;BME280;18624;50.042;8.436;2023-05-29T01:53:01;100561.03;;;17.04;51.70
32109;BME280;18624;50.042;8.436;2023-05-29T01:55:27;100375.34;;;15.75;51.84
32109;BME280;18624;50.042;8.436;2023-05-29T01:57:54;100582.56;;;17.09;52.06
32109;BME280;18624;50.042;8.436;2023-05-29T02:00:22;100343.00;;;15.39;51.94
32109;BME280;18624;50.042;8.436;2023-05-29T02:02:48;100379.50;;;15.61;52.13
32109;BME280;18624;50.042;8.436;2023-05-29T02:05:15;100487.16;;;16.44;52.60
32109;BME280;18624;50.042;8.436;2023-05-29T02:07:42;100466.25;;;16.34;52.92
32109;BME280;18624;50.042;8.436;2023-05-29T02:10:08;100373.69;;;15.59;53.13
32109;BME280;18624;50.042;8.436;2023-05-29T02:12:35;100368.28;;;15.74;53.13
32109;BME280;18624;50.042;8.436;2023-05-29T02:15:02;100581.91;;;17.14;52.94
32109;BME280;18624;50.042;8.436;2023-05-29T02:17:28;100582.28;;;17.07;53.04
32109;BME280;18624;50.042;8.436;2023-05-29T02:19:55;100575.06;;;17.01;53.02
32109;BME280;18624;50.042;8.436;2023-05-29T02:22:21;100487.44;;;16.46;52.33
32109;BME280;18624;50.042;8.436;2023-05-29T02:24:48;100492.69;;;16.44;52.79
32109;BME280;18624;50.042;8.436;2023-05-29T02:27:14;100544.56;;;16.77;53.00
32109;BME280;18624;50.042;8.436;2023-05-29T02:29:41;100475.81;;;16.33;53.30
32109;BME280;18624;50.042;8.436;2023-05-29T02:32:07;100531.78;;;16.70;53.24
32109;BME280;18624;50.042;8.436;2023-05-29T02:34:34;100452.34;;;16.10;53.60
32109;BME280;18624;50.042;8.436;2023-05-29T02:37:00;100405.31;;;15.77;53.00
32109;BME280;18624;50.042;8.436;2023-05-29T02:39:27;100579.88;;;16.91;53.07
32109;BME280;18624;50.042;8.436;2023-05-29T02:41:53;100599.97;;;17.01;53.25
32109;BME280;18624;50.042;8.436;2023-05-29T02:44:21;100541.78;;;16.67;53.31
32109;BME280;18624;50.042;8.436;2023-05-29T02:46:47;100499.19;;;16.23;53.57
32109;BME280;18624;50.042;8.436;2023-05-29T02:49:17;100579.28;;;16.78;53.75
32109;BME280;18624;50.042;8.436;2023-05-29T02:51:44;100447.78;;;15.98;53.98
32109;BME280;18624;50.042;8.436;2023-05-29T02:54:10;100512.06;;;16.35;54.33
32109;BME280;18624;50.042;8.436;2023-05-29T02:56:39;100523.88;;;16.44;54.26
32109;BME280;18624;50.042;8.436;2023-05-29T02:59:06;100606.03;;;16.90;54.49
32109;BME280;18624;50.042;8.436;2023-05-29T03:01:32;100349.44;;;15.08;54.58
32109;BME280;18624;50.042;8.436;2023-05-29T03:03:59;100470.06;;;16.03;55.35
32109;BME280;18624;50.042;8.436;2023-05-29T03:06:26;100588.53;;;16.75;55.23
32109;BME280;18624;50.042;8.436;2023-05-29T03:08:52;100505.19;;;16.12;55.70
32109;BME280;18624;50.042;8.436;2023-05-29T03:11:19;100532.06;;;16.20;55.77
32109;BME280;18624;50.042;8.436;2023-05-29T03:13:47;100509.03;;;16.05;56.04
32109;BME280;18624;50.042;8.436;2023-05-29T03:16:15;100592.06;;;16.57;56.30
32109;BME280;18624;50.042;8.436;2023-05-29T03:18:44;100284.41;;;14.43;56.53
32109;BME280;18624;50.042;8.436;2023-05-29T03:21:11;100458.38;;;15.53;57.11
32109;BME280;18624;50.042;8.436;2023-05-29T03:23:37;100360.47;;;14.81;57.80
32109;BME280;18624;50.042;8.436;2023-05-29T03:26:04;100537.47;;;15.87;57.96
32109;BME280;18624;50.042;8.436;2023-05-29T03:28:33;100323.59;;;14.38;58.30
32109;BME280;18624;50.042;8.436;2023-05-29T03:31:03;100592.28;;;16.07;58.64
32109;BME280;18624;50.042;8.436;2023-05-29T03:33:30;100434.41;;;14.95;58.62
32109;BME280;18624;50.042;8.436;2023-05-29T03:36:07;100331.34;;;14.21;58.62
32109;BME280;18624;50.042;8.436;2023-05-29T03:38:34;100449.75;;;15.05;59.30
32109;BME280;18624;50.042;8.436;2023-05-29T03:41:01;100456.22;;;15.11;59.14
32109;BME280;18624;50.042;8.436;2023-05-29T03:43:28;100340.84;;;14.20;58.95
32109;BME280;18624;50.042;8.436;2023-05-29T03:45:54;100548.34;;;15.54;59.28
32109;BME280;18624;50.042;8.436;2023-05-29T03:48:21;100410.56;;;14.61;59.48
32109;BME280;18624;50.042;8.436;2023-05-29T03:50:48;100552.31;;;15.62;59.75
32109;BME280;18624;50.042;8.436;2023-05-29T03:53:21;100548.78;;;15.53;59.74
32109;BME280;18624;50.042;8.436;2023-05-29T03:55:48;100544.94;;;15.41;59.97
32109;BME280;18624;50.042;8.436;2023-05-29T03:58:15;100461.53;;;14.87;59.78
32109;BME280;18624;50.042;8.436;2023-05-29T04:00:42;100577.03;;;15.57;59.99
32109;BME280;18624;50.042;8.436;2023-05-29T04:03:09;100621.00;;;15.82;60.34
32109;BME280;18624;50.042;8.436;2023-05-29T04:05:35;100464.13;;;14.82;60.47
32109;BME280;18624;50.042;8.436;2023-05-29T04:08:02;100610.84;;;15.70;60.46
32109;BME280;18624;50.042;8.436;2023-05-29T04:10:41;100632.34;;;15.75;60.71
32109;BME280;18624;50.042;8.436;2023-05-29T04:13:08;100442.22;;;14.47;61.20
32109;BME280;18624;50.042;8.436;2023-05-29T04:15:34;100574.38;;;15.35;61.65
32109;BME280;18624;50.042;8.436;2023-05-29T04:18:00;100640.81;;;15.72;62.02
32109;BME280;18624;50.042;8.436;2023-05-29T04:20:27;100519.19;;;14.94;62.31
32109;BME280;18624;50.042;8.436;2023-05-29T04:22:54;100616.47;;;15.57;62.93
32109;BME280;18624;50.042;8.436;2023-05-29T04:25:21;100564.50;;;15.15;63.19
32109;BME280;18624;50.042;8.436;2023-05-29T04:27:47;100652.44;;;15.66;64.10
32109;BME280;18624;50.042;8.436;2023-05-29T04:30:17;100512.78;;;14.66;64.02
32109;BME280;18624;50.042;8.436;2023-05-29T04:32:46;100569.06;;;15.00;64.69
32109;BME280;18624;50.042;8.436;2023-05-29T04:35:13;100487.06;;;14.38;64.54
32109;BME280;18624;50.042;8.436;2023-05-29T04:37:51;100437.34;;;14.20;64.89
32109;BME280;18624;50.042;8.436;2023-05-29T04:40:19;100365.41;;;13.65;65.27
32109;BME280;18624;50.042;8.436;2023-05-29T04:42:46;100630.97;;;15.30;65.24
32109;BME280;18624;50.042;8.436;2023-05-29T04:45:14;100423.63;;;14.07;65.35
32109;BME280;18624;50.042;8.436;2023-05-29T04:47:40;100418.38;;;14.00;65.49
32109;BME280;18624;50.042;8.436;2023-05-29T04:50:12;100556.22;;;14.75;65.21
32109;BME280;18624;50.042;8.436;2023-05-29T04:52:41;100465.25;;;14.31;66.21
32109;BME280;18624;50.042;8.436;2023-05-29T04:55:10;100645.75;;;15.45;65.82
32109;BME280;18624;50.042;8.436;2023-05-29T04:57:37;100703.16;;;15.91;66.25
32109;BME280;18624;50.042;8.436;2023-05-29T05:00:06;100633.31;;;15.41;66.36
32109;BME280;18624;50.042;8.436;2023-05-29T05:02:37;100708.88;;;15.97;66.23
32109;BME280;18624;50.042;8.436;2023-05-29T05:05:04;100718.38;;;15.95;66.44
32109;BME280;18624;50.042;8.436;2023-05-29T05:07:31;100735.16;;;16.10;67.20
32109;BME280;18624;50.042;8.436;2023-05-29T05:09:57;100720.06;;;16.02;68.01
32109;BME280;18624;50.042;8.436;2023-05-29T05:12:26;100452.78;;;14.17;68.26
32109;BME280;18624;50.042;8.436;2023-05-29T05:14:53;100686.72;;;15.78;68.86
32109;BME280;18624;50.042;8.436;2023-05-29T05:17:19;100424.81;;;13.97;69.28
32109;BME280;18624;50.042;8.436;2023-05-29T05:19:46;100674.81;;;15.59;69.72
32109;BME280;18624;50.042;8.436;2023-05-29T05:22:15;100691.91;;;15.67;69.58
32109;BME280;18624;50.042;8.436;2023-05-29T05:24:42;100682.63;;;15.61;69.58
32109;BME280;18624;50.042;8.436;2023-05-29T05:27:09;100731.13;;;16.02;69.09
32109;BME280;18624;50.042;8.436;2023-05-29T05:29:35;100739.75;;;15.95;69.51
32109;BME280;18624;50.042;8.436;2023-05-29T05:32:03;100685.31;;;15.74;69.45
32109;BME280;18624;50.042;8.436;2023-05-29T05:34:29;100641.31;;;15.57;69.52
32109;BME280;18624;50.042;8.436;2023-05-29T05:36:56;100668.72;;;15.64;69.32
32109;BME280;18624;50.042;8.436;2023-05-29T05:39:22;100662.91;;;15.72;69.14
32109;BME280;18624;50.042;8.436;2023-05-29T05:41:50;100388.06;;;13.69;68.72
32109;BME280;18624;50.042;8.436;2023-05-29T05:44:33;100747.63;;;16.33;70.09
32109;BME280;18624;50.042;8.436;2023-05-29T05:47:07;100723.78;;;16.08;70.54
32109;BME280;18624;50.042;8.436;2023-05-29T05:49:34;100464.06;;;14.32;69.99
32109;BME280;18624;50.042;8.436;2023-05-29T05:52:00;100662.28;;;15.67;70.02
32109;BME280;18624;50.042;8.436;2023-05-29T05:54:27;100727.78;;;16.16;70.48
32109;BME280;18624;50.042;8.436;2023-05-29T05:56:54;100478.59;;;14.55;69.76
32109;BME280;18624;50.042;8.436;2023-05-29T05:59:20;100761.94;;;16.50;69.65
32109;BME280;18624;50.042;8.436;2023-05-29T06:01:47;100676.78;;;15.99;69.06
32109;BME280;18624;50.042;8.436;2023-05-29T06:04:13;100493.22;;;14.74;68.81
32109;BME280;18624;50.042;8.436;2023-05-29T06:06:41;100678.31;;;16.09;68.80
32109;BME280;18624;50.042;8.436;2023-05-29T06:09:08;100732.56;;;16.25;68.71
32109;BME280;18624;50.042;8.436;2023-05-29T06:11:36;100595.91;;;15.49;68.57
32109;BME280;18624;50.042;8.436;2023-05-29T06:14:03;100741.19;;;16.45;67.70
32109;BME280;18624;50.042;8.436;2023-05-29T06:16:30;100576.84;;;15.42;68.31
32109;BME280;18624;50.042;8.436;2023-05-29T06:18:57;100769.16;;;16.66;67.80
32109;BME280;18624;50.042;8.436;2023-05-29T06:21:24;100747.22;;;16.62;66.94
32109;BME280;18624;50.042;8.436;2023-05-29T06:23:53;100782.13;;;16.96;65.28
32109;BME280;18624;50.042;8.436;2023-05-29T06:26:20;100681.88;;;16.28;65.54
32109;BME280;18624;50.042;8.436;2023-05-29T06:28:48;100665.09;;;16.04;66.13
32109;BME280;18624;50.042;8.436;2023-05-29T06:31:15;100659.59;;;16.13;66.90
32109;BME280;18624;50.042;8.436;2023-05-29T06:33:42;100768.28;;;16.87;67.35
32109;BME280;18624;50.042;8.436;2023-05-29T06:36:09;100742.91;;;16.89;66.29
32109;BME280;18624;50.042;8.436;2023-05-29T06:38:35;100713.25;;;16.80;65.12
32109;BME280;18624;50.042;8.436;2023-05-29T06:41:02;100757.94;;;17.15;63.59
32109;BME280;18624;50.042;8.436;2023-05-29T06:43:29;100751.00;;;17.29;61.53
32109;BME280;18624;50.042;8.436;2023-05-29T06:45:56;100704.13;;;17.07;62.34
32109;BME280;18624;50.042;8.436;2023-05-29T06:48:23;100787.97;;;17.68;63.03
32109;BME280;18624;50.042;8.436;2023-05-29T06:50:50;100753.50;;;17.60;61.59
32109;BME280;18624;50.042;8.436;2023-05-29T06:53:35;100794.00;;;18.00;59.06
32109;BME280;18624;50.042;8.436;2023-05-29T06:56:02;100751.53;;;17.94;59.02
32109;BME280;18624;50.042;8.436;2023-05-29T06:58:30;100779.97;;;18.28;58.38
32109;BME280;18624;50.042;8.436;2023-05-29T07:00:57;100774.03;;;18.44;58.28
32109;BME280;18624;50.042;8.436;2023-05-29T07:03:31;100575.31;;;17.12;57.14
32109;BME280;18624;50.042;8.436;2023-05-29T07:06:00;100601.94;;;17.42;57.78
32109;BME280;18624;50.042;8.436;2023-05-29T07:08:27;100796.88;;;18.87;56.98
32109;BME280;18624;50.042;8.436;2023-05-29T07:10:54;100550.13;;;17.34;54.46
32109;BME280;18624;50.042;8.436;2023-05-29T07:13:21;100783.03;;;18.78;54.36
32109;BME280;18624;50.042;8.436;2023-05-29T07:15:50;100653.41;;;17.91;54.64
32109;BME280;18624;50.042;8.436;2023-05-29T07:18:22;100763.56;;;18.87;55.04
32109;BME280;18624;50.042;8.436;2023-05-29T07:20:49;100695.25;;;18.41;53.33
32109;BME280;18624;50.042;8.436;2023-05-29T07:23:18;100661.94;;;18.27;54.07
32109;BME280;18624;50.042;8.436;2023-05-29T07:25:45;100746.88;;;18.87;53.91
32109;BME280;18624;50.042;8.436;2023-05-29T07:28:12;100711.25;;;18.85;52.16
32109;BME280;18624;50.042;8.436;2023-05-29T07:30:48;100748.25;;;19.06;52.32
32109;BME280;18624;50.042;8.436;2023-05-29T07:33:14;100560.25;;;17.85;51.82
32109;BME280;18624;50.042;8.436;2023-05-29T07:35:42;100786.66;;;19.52;52.60
32109;BME280;18624;50.042;8.436;2023-05-29T07:38:09;100803.34;;;19.67;53.93
32109;BME280;18624;50.042;8.436;2023-05-29T07:40:37;100754.94;;;19.29;51.54
32109;BME280;18624;50.042;8.436;2023-05-29T07:43:07;100539.53;;;17.95;51.52
32109;BME280;18624;50.042;8.436;2023-05-29T07:45:45;100789.50;;;19.87;51.69
32109;BME280;18624;50.042;8.436;2023-05-29T07:48:11;100819.81;;;19.85;50.98
32109;BME280;18624;50.042;8.436;2023-05-29T07:50:40;100605.81;;;18.46;49.58
32109;BME280;18624;50.042;8.436;2023-05-29T07:53:06;100798.03;;;19.84;49.49
32109;BME280;18624;50.042;8.436;2023-05-29T07:55:35;100699.63;;;19.31;51.72
32109;BME280;18624;50.042;8.436;2023-05-29T07:58:02;100738.88;;;19.83;51.01
32109;BME280;18624;50.042;8.436;2023-05-29T08:00:29;100596.13;;;18.86;49.59
32109;BME280;18624;50.042;8.436;2023-05-29T08:02:55;100781.34;;;20.19;49.77
32109;BME280;18624;50.042;8.436;2023-05-29T08:05:29;100809.28;;;20.45;51.19
32109;BME280;18624;50.042;8.436;2023-05-29T08:07:59;100729.50;;;20.01;50.59
32109;BME280;18624;50.042;8.436;2023-05-29T08:10:26;100534.38;;;18.91;51.08
32109;BME280;18624;50.042;8.436;2023-05-29T08:12:53;100792.03;;;20.61;48.24
32109;BME280;18624;50.042;8.436;2023-05-29T08:15:19;100756.72;;;20.53;47.27
32109;BME280;18624;50.042;8.436;2023-05-29T08:17:46;100718.38;;;20.21;47.63
32109;BME280;18624;50.042;8.436;2023-05-29T08:20:13;100794.59;;;20.65;48.43
32109;BME280;18624;50.042;8.436;2023-05-29T08:22:39;100681.38;;;20.15;49.69
32109;BME280;18624;50.042;8.436;2023-05-29T08:25:06;100530.53;;;19.24;48.11
32109;BME280;18624;50.042;8.436;2023-05-29T08:27:32;100787.72;;;21.07;48.11
32109;BME280;18624;50.042;8.436;2023-05-29T08:29:59;100818.53;;;21.23;48.52
32109;BME280;18624;50.042;8.436;2023-05-29T08:32:25;100822.81;;;21.45;48.39
32109;BME280;18624;50.042;8.436;2023-05-29T08:34:52;100791.16;;;21.48;48.39
32109;BME280;18624;50.042;8.436;2023-05-29T08:37:18;100803.72;;;21.64;47.27
32109;BME280;18624;50.042;8.436;2023-05-29T08:39:45;100807.91;;;21.80;46.54
32109;BME280;18624;50.042;8.436;2023-05-29T08:42:13;100413.28;;;19.20;46.34
32109;BME280;18624;50.042;8.436;2023-05-29T08:44:46;100685.09;;;21.05;46.84
32109;BME280;18624;50.042;8.436;2023-05-29T08:47:14;100803.91;;;21.92;46.20
32109;BME280;18624;50.042;8.436;2023-05-29T08:49:54;100804.78;;;22.09;44.02
32109;BME280;18624;50.042;8.436;2023-05-29T08:52:24;100550.50;;;20.62;45.09
32109;BME280;18624;50.042;8.436;2023-05-29T08:54:54;100797.66;;;22.51;44.79
32109;BME280;18624;50.042;8.436;2023-05-29T08:57:21;100794.31;;;22.41;42.39
32109;BME280;18624;50.042;8.436;2023-05-29T08:59:51;100773.81;;;22.07;42.10
32109;BME280;18624;50.042;8.436;2023-05-29T09:02:18;100689.72;;;21.40;42.89
32109;BME280;18624;50.042;8.436;2023-05-29T09:04:46;100701.31;;;21.33;43.78
32109;BME280;18624;50.042;8.436;2023-05-29T09:07:16;100766.88;;;21.91;45.93
32109;BME280;18624;50.042;8.436;2023-05-29T09:09:42;100711.91;;;21.66;43.97
32109;BME280;18624;50.042;8.436;2023-05-29T09:12:09;100802.97;;;22.06;42.73
32109;BME280;18624;50.042;8.436;2023-05-29T09:14:40;100746.13;;;21.61;42.99
32109;BME280;18624;50.042;8.436;2023-05-29T09:17:09;100804.88;;;22.20;44.95
32109;BME280;18624;50.042;8.436;2023-05-29T09:19:37;100802.22;;;22.48;43.97
32109;BME280;18624;50.042;8.436;2023-05-29T09:22:07;100552.03;;;20.94;43.51
32109;BME280;18624;50.042;8.436;2023-05-29T09:24:34;100783.47;;;22.60;45.07
32109;BME280;18624;50.042;8.436;2023-05-29T09:27:03;100804.59;;;22.78;43.47
32109;BME280;18624;50.042;8.436;2023-05-29T09:29:40;100813.53;;;22.88;45.40
32109;BME280;18624;50.042;8.436;2023-05-29T09:32:12;100787.06;;;22.66;42.44
32109;BME280;18624;50.042;8.436;2023-05-29T09:34:38;100812.50;;;22.74;41.91
32109;BME280;18624;50.042;8.436;2023-05-29T09:37:06;100641.81;;;21.41;42.16
32109;BME280;18624;50.042;8.436;2023-05-29T09:39:45;100606.81;;;21.35;42.32
32109;BME280;18624;50.042;8.436;2023-05-29T09:42:13;100711.69;;;22.12;44.15
32109;BME280;18624;50.042;8.436;2023-05-29T09:44:40;100805.16;;;22.88;43.00
32109;BME280;18624;50.042;8.436;2023-05-29T09:47:07;100588.09;;;21.46;41.28
32109;BME280;18624;50.042;8.436;2023-05-29T09:49:33;100607.38;;;21.50;43.06
32109;BME280;18624;50.042;8.436;2023-05-29T09:52:00;100793.19;;;22.76;43.36
32109;BME280;18624;50.042;8.436;2023-05-29T09:54:28;100593.44;;;21.50;43.38
32109;BME280;18624;50.042;8.436;2023-05-29T09:56:57;100715.56;;;22.26;43.14
32109;BME280;18624;50.042;8.436;2023-05-29T09:59:24;100770.00;;;22.64;42.59
32109;BME280;18624;50.042;8.436;2023-05-29T10:02:01;100805.44;;;22.95;43.78
32109;BME280;18624;50.042;8.436;2023-05-29T10:04:31;100741.59;;;22.77;43.43
32109;BME280;18624;50.042;8.436;2023-05-29T10:07:08;100787.94;;;23.17;42.28
32109;BME280;18624;50.042;8.436;2023-05-29T10:09:38;100798.63;;;23.41;42.71
32109;BME280;18624;50.042;8.436;2023-05-29T10:12:07;100800.44;;;23.39;41.16
32109;BME280;18624;50.042;8.436;2023-05-29T10:14:35;100719.75;;;22.70;40.08
32109;BME280;18624;50.042;8.436;2023-05-29T10:17:06;100557.16;;;21.44;41.68
32109;BME280;18624;50.042;8.436;2023-05-29T10:19:36;100536.06;;;21.32;40.58
32109;BME280;18624;50.042;8.436;2023-05-29T10:22:04;100733.47;;;22.73;39.92
32109;BME280;18624;50.042;8.436;2023-05-29T10:24:32;100794.81;;;23.22;40.52
32109;BME280;18624;50.042;8.436;2023-05-29T10:26:59;100790.50;;;23.21;41.74
32109;BME280;18624;50.042;8.436;2023-05-29T10:29:35;100726.63;;;22.74;40.21
32109;BME280;18624;50.042;8.436;2023-05-29T10:32:17;100780.81;;;23.05;40.81
32109;BME280;18624;50.042;8.436;2023-05-29T10:38:11;100796.34;;;23.17;38.39
32109;BME280;18624;50.042;8.436;2023-05-29T10:40:29;100677.53;;;22.34;38.95
32109;BME280;18624;50.042;8.436;2023-05-29T10:42:55;100783.09;;;22.95;39.54
32109;BME280;18624;50.042;8.436;2023-05-29T10:47:54;100496.47;;;21.22;39.14
32109;BME280;18624;50.042;8.436;2023-05-29T10:50:43;100786.44;;;23.22;38.85
32109;BME280;18624;50.042;8.436;2023-05-29T10:53:10;100756.16;;;22.98;39.59
32109;BME280;18624;50.042;8.436;2023-05-29T10:55:41;100788.72;;;23.18;38.90
32109;BME280;18624;50.042;8.436;2023-05-29T10:58:21;100787.72;;;23.15;38.79
32109;BME280;18624;50.042;8.436;2023-05-29T11:00:49;100622.59;;;22.09;39.67
32109;BME280;18624;50.042;8.436;2023-05-29T11:05:59;100787.72;;;23.27;37.81
32109;BME280;18624;50.042;8.436;2023-05-29T11:08:44;100715.69;;;22.82;38.75
32109;BME280;18624;50.042;8.436;2023-05-29T11:11:15;100580.97;;;22.05;37.29
32109;BME280;18624;50.042;8.436;2023-05-29T11:13:56;100745.25;;;23.22;36.92
32109;BME280;18624;50.042;8.436;2023-05-29T11:18:56;100571.53;;;21.97;34.60
32109;BME280;18624;50.042;8.436;2023-05-29T11:24:26;100769.94;;;23.46;35.47
32109;BME280;18624;50.042;8.436;2023-05-29T11:26:54;100736.09;;;23.16;36.56
32109;BME280;18624;50.042;8.436;2023-05-29T11:29:26;100685.00;;;23.05;34.38
32109;BME280;18624;50.042;8.436;2023-05-29T11:32:05;100740.69;;;23.42;33.69
32109;BME280;18624;50.042;8.436;2023-05-29T11:34:38;100707.63;;;23.29;35.26
32109;BME280;18624;50.042;8.436;2023-05-29T11:37:04;100690.84;;;23.12;37.21
32109;BME280;18624;50.042;8.436;2023-05-29T11:39:38;100573.94;;;22.21;39.13
32109;BME280;18624;50.042;8.436;2023-05-29T11:42:06;100550.81;;;22.15;38.10
32109;BME280;18624;50.042;8.436;2023-05-29T11:44:33;100617.88;;;22.60;37.65
32109;BME280;18624;50.042;8.436;2023-05-29T11:47:04;100754.16;;;23.49;38.58
32109;BME280;18624;50.042;8.436;2023-05-29T11:49:32;100767.63;;;23.62;38.95
32109;BME280;18624;50.042;8.436;2023-05-29T11:52:10;100761.50;;;23.58;39.01
32109;BME280;18624;50.042;8.436;2023-05-29T11:54:41;100763.06;;;23.64;39.75
32109;BME280;18624;50.042;8.436;2023-05-29T11:57:20;100750.34;;;23.69;40.42
32109;BME280;18624;50.042;8.436;2023-05-29T11:59:47;100732.28;;;23.53;39.92
32109;BME280;18624;50.042;8.436;2023-05-29T12:02:15;100518.03;;;22.10;39.50
32109;BME280;18624;50.042;8.436;2023-05-29T12:04:41;100689.31;;;23.22;39.55
32109;BME280;18624;50.042;8.436;2023-05-29T12:07:18;100706.88;;;23.34;40.06
32109;BME280;18624;50.042;8.436;2023-05-29T12:09:45;100751.88;;;23.70;38.64
32109;BME280;18624;50.042;8.436;2023-05-29T12:12:11;100688.81;;;23.30;38.24
32109;BME280;18624;50.042;8.436;2023-05-29T12:14:38;100675.59;;;23.24;39.35
32109;BME280;18624;50.042;8.436;2023-05-29T12:17:04;100560.50;;;22.47;39.32
32109;BME280;18624;50.042;8.436;2023-05-29T12:19:31;100710.91;;;23.50;39.97
32109;BME280;18624;50.042;8.436;2023-05-29T12:21:58;100720.34;;;23.69;38.27
32109;BME280;18624;50.042;8.436;2023-05-29T12:24:24;100647.66;;;23.13;39.27
32109;BME280;18624;50.042;8.436;2023-05-29T12:27:05;100740.91;;;23.83;39.43
32109;BME280;18624;50.042;8.436;2023-05-29T12:29:33;100711.91;;;23.58;38.54
32109;BME280;18624;50.042;8.436;2023-05-29T12:32:00;100674.31;;;23.42;39.05
32109;BME280;18624;50.042;8.436;2023-05-29T12:34:26;100692.59;;;23.60;38.85
32109;BME280;18624;50.042;8.436;2023-05-29T12:37:06;100627.06;;;23.16;37.18
32109;BME280;18624;50.042;8.436;2023-05-29T12:39:36;100514.56;;;22.43;37.37
32109;BME280;18624;50.042;8.436;2023-05-29T12:42:03;100533.81;;;22.69;37.74
32109;BME280;18624;50.042;8.436;2023-05-29T12:44:30;100659.28;;;23.51;38.11
32109;BME280;18624;50.042;8.436;2023-05-29T12:46:56;100434.81;;;22.08;37.42
32109;BME280;18624;50.042;8.436;2023-05-29T12:49:23;100703.22;;;23.90;37.50
32109;BME280;18624;50.042;8.436;2023-05-29T12:51:52;100519.88;;;22.74;37.65
32109;BME280;18624;50.042;8.436;2023-05-29T12:54:18;100545.75;;;22.92;38.46
32109;BME280;18624;50.042;8.436;2023-05-29T12:56:45;100692.00;;;24.01;37.85
32109;BME280;18624;50.042;8.436;2023-05-29T12:59:12;100463.25;;;22.46;36.59
32109;BME280;18624;50.042;8.436;2023-05-29T13:01:39;100581.31;;;23.14;37.41
32109;BME280;18624;50.042;8.436;2023-05-29T13:04:07;100666.63;;;23.71;36.77
32109;BME280;18624;50.042;8.436;2023-05-29T13:06:35;100701.97;;;23.80;37.63
32109;BME280;18624;50.042;8.436;2023-05-29T13:09:02;100693.53;;;23.91;36.96
32109;BME280;18624;50.042;8.436;2023-05-29T13:11:28;100695.06;;;23.86;37.20
32109;BME280;18624;50.042;8.436;2023-05-29T13:13:55;100539.16;;;22.84;37.29
32109;BME280;18624;50.042;8.436;2023-05-29T13:16:21;100477.47;;;22.54;37.87